Time;durP1;ratioP1;P1;durP2;ratioP2;P2;SDS_P1;SDS_P2;PMS_P1;PMS_P2;Temp;Humidity;BMP_temperature;BMP_pressure;BME280_temperature;BME280_humidity;BME280_pressure;Samples;Min_cycle;Max_cycle;Signal;HPM_P1;HPM_P2
2022/06/27 00:00:10;;;;;;;7.57;4.93;;;;;;;16.84;81.46;101424.97;5084657;28;20153;-77
2022/06/27 00:02:41;;;;;;;8.38;5.32;;;;;;;16.82;81.23;101420.69;5084970;28;20071;-78
2022/06/27 00:05:11;;;;;;;6.72;5.22;;;;;;;16.83;81.29;101425.06;5083755;28;20531;-77
2022/06/27 00:07:39;;;;;;;7.07;4.97;;;;;;;16.77;81.76;101423.56;5084448;28;20171;-77
2022/06/27 00:10:08;;;;;;;8.70;4.78;;;;;;;16.75;82.44;101422.75;5090685;28;20037;-77
2022/06/27 00:12:38;;;;;;;8.82;5.00;;;;;;;16.68;82.63;101426.66;5084082;28;20071;-75
2022/06/27 00:15:14;;;;;;;7.00;5.00;;;;;;;16.63;82.54;101418.00;5083830;28;20138;-75
2022/06/27 00:17:42;;;;;;;5.78;4.60;;;;;;;16.60;82.61;101429.66;5082986;28;20111;-76
2022/06/27 00:20:10;;;;;;;6.63;5.07;;;;;;;16.57;82.63;101443.97;5084048;28;22083;-75
2022/06/27 00:22:37;;;;;;;6.72;4.70;;;;;;;16.55;82.39;101453.84;5086951;28;20155;-76
2022/06/27 00:25:06;;;;;;;7.10;5.07;;;;;;;16.54;82.69;101457.41;5089620;28;20051;-76
2022/06/27 00:27:34;;;;;;;8.65;4.75;;;;;;;16.56;82.56;101454.69;5084190;28;20532;-77
2022/06/27 00:30:03;;;;;;;6.38;4.50;;;;;;;16.57;82.43;101461.72;5071836;28;20042;-78
2022/06/27 00:32:30;;;;;;;7.55;4.68;;;;;;;16.59;82.34;101467.84;5083969;28;20156;-77
2022/06/27 00:34:57;;;;;;;8.05;4.60;;;;;;;16.59;82.00;101466.03;5090272;28;20495;-78
2022/06/27 00:37:25;;;;;;;8.82;4.50;;;;;;;16.61;81.78;101468.66;5092056;28;20132;-77
2022/06/27 00:39:52;;;;;;;7.43;4.53;;;;;;;16.63;81.56;101480.09;5091481;28;20033;-78
2022/06/27 00:42:19;;;;;;;6.85;4.70;;;;;;;16.67;81.55;101481.69;5088800;28;20247;-76
2022/06/27 00:44:46;;;;;;;7.95;4.80;;;;;;;16.71;81.44;101487.72;5074172;28;20040;-76
2022/06/27 00:47:14;;;;;;;8.65;4.65;;;;;;;16.73;81.53;101486.72;5085454;28;20116;-76
2022/06/27 00:49:43;;;;;;;8.02;4.75;;;;;;;16.76;81.43;101499.88;5084396;28;20039;-76
2022/06/27 00:52:13;;;;;;;9.00;4.68;;;;;;;16.79;81.27;101498.03;5091489;28;20080;-76
2022/06/27 00:54:44;;;;;;;7.15;4.47;;;;;;;16.80;81.32;101481.13;5092137;28;20127;-76
2022/06/27 00:57:15;;;;;;;7.78;5.10;;;;;;;16.82;81.02;101476.59;5090687;28;20043;-77
2022/06/27 00:59:44;;;;;;;5.45;4.07;;;;;;;16.83;80.74;101494.28;5073455;28;20048;-77
2022/06/27 01:02:11;;;;;;;7.18;4.90;;;;;;;16.84;80.80;101498.69;5090466;28;20112;-77
2022/06/27 01:04:39;;;;;;;6.85;4.60;;;;;;;16.84;80.81;101510.19;5071947;28;20080;-78
2022/06/27 01:07:09;;;;;;;7.80;4.65;;;;;;;16.85;80.89;101495.94;5070906;28;20130;-78
2022/06/27 01:09:42;;;;;;;;;;;;;;;16.80;80.99;101481.97;5073939;28;20045;-77
2022/06/27 01:12:11;;;;;;;6.53;4.68;;;;;;;16.78;81.17;101489.19;5088593;28;20026;-78
2022/06/27 01:14:38;;;;;;;8.55;4.78;;;;;;;16.77;81.17;101484.78;5088960;28;20078;-77
2022/06/27 01:17:06;;;;;;;7.78;4.50;;;;;;;16.76;81.49;101478.59;5089484;28;20088;-77
2022/06/27 01:19:33;;;;;;;6.25;4.38;;;;;;;16.76;81.72;101483.91;5072408;28;20040;-77
2022/06/27 01:22:10;;;;;;;8.00;4.95;;;;;;;16.78;81.85;101475.88;5089564;28;20049;-77
2022/06/27 01:24:38;;;;;;;6.40;4.28;;;;;;;16.76;82.20;101464.44;5075730;28;20045;-77
2022/06/27 01:27:08;;;;;;;7.82;4.60;;;;;;;16.71;82.29;101464.63;5083394;28;20052;-77
2022/06/27 01:29:36;;;;;;;7.38;4.70;;;;;;;16.67;82.14;101462.19;5063126;28;20048;-76
2022/06/27 01:32:05;;;;;;;7.60;4.35;;;;;;;16.64;82.43;101459.66;5067859;28;20199;-76
2022/06/27 01:34:33;;;;;;;5.32;4.50;;;;;;;16.61;82.35;101445.56;5083191;28;20037;-77
2022/06/27 01:37:03;;;;;;;8.20;4.75;;;;;;;16.59;82.39;101458.06;5071459;28;20669;-77
2022/06/27 01:39:32;;;;;;;10.02;4.88;;;;;;;16.56;82.30;101452.03;5064704;28;20115;-76
2022/06/27 01:42:03;;;;;;;10.45;5.25;;;;;;;16.53;82.16;101447.72;5084515;28;20045;-77
2022/06/27 01:44:33;;;;;;;6.75;4.88;;;;;;;16.55;82.40;101450.28;5072654;28;20048;-77
2022/06/27 01:47:08;;;;;;;6.18;4.05;;;;;;;16.58;82.37;101440.34;5086752;28;20067;-77
2022/06/27 01:49:44;;;;;;;5.93;4.63;;;;;;;16.66;82.33;101440.00;5068279;28;20504;-77
2022/06/27 01:52:15;;;;;;;6.28;4.50;;;;;;;16.71;82.27;101431.81;5059728;28;20156;-78
2022/06/27 01:54:44;;;;;;;5.97;4.20;;;;;;;16.75;82.13;101423.59;5083515;28;20090;-78
2022/06/27 01:57:14;;;;;;;6.45;3.90;;;;;;;16.72;81.96;101412.25;5067501;28;20048;-78
2022/06/27 01:59:43;;;;;;;6.43;4.47;;;;;;;16.69;81.85;101412.38;5070932;28;20040;-78
2022/06/27 02:02:11;;;;;;;6.20;4.57;;;;;;;16.65;82.09;101422.31;5070327;28;20117;-76
2022/06/27 02:04:42;;;;;;;6.63;4.95;;;;;;;16.61;82.03;101426.06;5068416;28;20091;-75
2022/06/27 02:07:11;;;;;;;8.15;5.07;;;;;;;16.59;82.41;101419.94;5064677;28;20061;-75
2022/06/27 02:09:38;;;;;;;8.52;5.10;;;;;;;16.58;82.36;101423.53;5083062;28;20558;-75
2022/06/27 02:12:19;;;;;;;7.43;5.30;;;;;;;16.58;82.27;101421.72;5085160;28;20120;-74
2022/06/27 02:14:50;;;;;;;8.68;5.20;;;;;;;16.60;82.12;101422.53;5068155;28;20044;-78
2022/06/27 02:17:22;;;;;;;7.32;5.35;;;;;;;16.66;81.76;101425.84;5071158;28;22305;-78
2022/06/27 02:19:49;;;;;;;6.72;5.07;;;;;;;16.67;81.68;101419.59;5068098;28;20536;-76
2022/06/27 02:22:17;;;;;;;8.02;5.60;;;;;;;16.66;81.64;101423.19;5085785;28;20537;-77
2022/06/27 02:24:44;;;;;;;6.70;5.25;;;;;;;16.65;81.74;101414.31;5071516;28;20092;-76
2022/06/27 02:27:11;;;;;;;7.57;5.10;;;;;;;16.64;81.98;101412.59;5091153;28;20036;-76
2022/06/27 02:29:40;;;;;;;7.10;5.22;;;;;;;16.64;81.90;101409.94;5091377;28;20112;-72
2022/06/27 02:32:08;;;;;;;8.93;5.45;;;;;;;16.65;82.00;101401.00;5074651;28;20032;-73
2022/06/27 02:34:37;;;;;;;8.65;5.88;;;;;;;16.70;82.04;101401.69;5092597;28;20070;-72
2022/06/27 02:37:06;;;;;;;5.85;4.85;;;;;;;16.75;82.14;101406.78;5091856;28;20033;-71
2022/06/27 02:39:38;;;;;;;9.73;5.55;;;;;;;16.84;81.69;101392.19;5092134;28;20098;-75
2022/06/27 02:42:09;;;;;;;8.82;5.40;;;;;;;16.86;81.35;101382.28;5091085;28;20091;-75
2022/06/27 02:44:39;;;;;;;9.18;5.35;;;;;;;16.82;81.54;101386.91;5094195;28;20491;-75
2022/06/27 02:47:07;;;;;;;9.10;5.60;;;;;;;16.79;81.49;101386.19;5093985;28;20048;-75
2022/06/27 02:49:35;;;;;;;7.30;5.00;;;;;;;16.79;81.56;101388.88;5071268;28;20068;-74
2022/06/27 02:52:05;;;;;;;8.85;5.32;;;;;;;16.79;81.57;101376.41;5075919;28;20145;-76
2022/06/27 02:55:01;;;;;;;8.02;5.32;;;;;;;16.78;81.42;101377.38;5076454;28;20072;-76
2022/06/27 02:57:43;;;;;;;11.35;6.15;;;;;;;16.74;81.53;101376.63;5074981;28;20048;-76
2022/06/27 03:00:12;;;;;;;10.75;5.78;;;;;;;16.71;81.43;101365.25;5076253;28;20063;-75
2022/06/27 03:02:44;;;;;;;7.90;5.63;;;;;;;16.70;81.45;101366.19;5093467;28;20134;-75
2022/06/27 03:05:30;;;;;;;10.10;6.25;;;;;;;16.66;81.73;101359.31;5088129;28;20139;-79
2022/06/27 03:07:58;;;;;;;8.27;5.88;;;;;;;16.64;81.61;101369.16;5083677;28;20094;-78
2022/06/27 03:10:26;;;;;;;11.70;6.30;;;;;;;16.65;81.71;101376.22;5067795;28;20045;-78
2022/06/27 03:12:54;;;;;;;10.45;6.93;;;;;;;16.61;81.74;101363.03;5068610;28;20048;-78
2022/06/27 03:15:22;;;;;;;8.85;6.05;;;;;;;16.61;81.89;101351.53;5064850;28;20156;-78
2022/06/27 03:17:52;;;;;;;9.00;6.82;;;;;;;16.58;81.76;101352.53;5067969;28;20547;-78
2022/06/27 03:20:29;;;;;;;12.10;6.70;;;;;;;16.56;81.85;101354.44;5085948;28;20041;-78
2022/06/27 03:23:17;;;;;;;7.80;6.70;;;;;;;16.54;81.80;101358.06;5085412;28;20141;-78
2022/06/27 03:25:49;;;;;;;10.80;6.05;;;;;;;16.51;81.92;101361.75;5075204;28;20131;-78
2022/06/27 03:28:16;;;;;;;11.10;6.93;;;;;;;16.47;81.82;101354.88;5070569;28;20033;-78
2022/06/27 03:30:44;;;;;;;10.82;7.00;;;;;;;16.42;82.10;101344.44;5084129;28;20044;-77
2022/06/27 03:33:12;;;;;;;10.27;6.10;;;;;;;16.41;82.63;101336.50;5066233;28;20092;-78
2022/06/27 03:35:50;;;;;;;10.07;7.43;;;;;;;16.48;82.53;101332.66;5082041;28;20041;-78
2022/06/27 03:38:18;;;;;;;9.52;7.93;;;;;;;16.48;82.61;101331.75;5084609;28;20075;-78
2022/06/27 03:40:47;;;;;;;13.65;7.25;;;;;;;16.46;82.66;101323.88;5069805;28;20039;-78
2022/06/27 03:43:14;;;;;;;10.80;7.38;;;;;;;16.48;82.81;101318.47;5091650;28;20048;-77
2022/06/27 03:45:41;;;;;;;13.13;7.68;;;;;;;16.48;82.93;101318.47;5072986;28;20080;-78
2022/06/27 03:48:09;;;;;;;14.75;7.90;;;;;;;16.49;82.84;101322.84;5083397;28;20807;-78
2022/06/27 03:51:06;;;;;;;11.05;7.55;;;;;;;16.49;82.71;101314.88;5077914;28;20041;-78
2022/06/27 03:53:33;;;;;;;9.00;6.82;;;;;;;16.48;82.92;101315.78;5069724;28;20041;-78
2022/06/27 03:56:01;;;;;;;12.73;8.25;;;;;;;16.49;82.97;101328.16;5072434;28;20049;-79
2022/06/27 03:58:28;;;;;;;11.20;8.13;;;;;;;16.50;83.06;101336.06;5067423;28;20059;-78
2022/06/27 04:00:55;;;;;;;13.68;8.20;;;;;;;16.48;82.83;101343.28;5087729;28;20041;-78
2022/06/27 04:03:23;;;;;;;11.55;7.85;;;;;;;16.51;82.93;101358.25;5065498;28;20049;-78
2022/06/27 04:05:53;;;;;;;10.82;8.65;;;;;;;16.51;82.88;101359.09;5069154;28;20100;-78
2022/06/27 04:08:21;;;;;;;12.10;8.63;;;;;;;16.52;83.06;101344.00;5054332;28;20033;-78
2022/06/27 04:10:48;;;;;;;11.52;8.30;;;;;;;16.53;83.18;101340.41;5077508;28;20049;-78
2022/06/27 04:13:21;;;;;;;12.18;9.00;;;;;;;16.53;83.03;101335.94;5059666;28;20041;-78
2022/06/27 04:16:08;;;;;;;10.60;8.60;;;;;;;16.55;83.06;101344.72;5070030;28;20047;-78
2022/06/27 04:18:54;;;;;;;12.90;8.77;;;;;;;16.58;82.98;101346.34;5061009;28;20188;-79
2022/06/27 04:21:40;;;;;;;12.40;8.75;;;;;;;16.60;83.42;101344.50;5064078;28;20036;-79
2022/06/27 04:24:15;;;;;;;20.33;9.77;;;;;;;16.66;82.95;101353.97;5060792;28;20719;-78
2022/06/27 04:26:51;;;;;;;11.80;8.07;;;;;;;16.71;83.02;101366.13;5062873;28;20119;-78
2022/06/27 04:29:18;;;;;;;12.40;8.40;;;;;;;16.76;82.79;101363.25;5065651;28;20201;-77
2022/06/27 04:31:45;;;;;;;18.73;8.65;;;;;;;16.84;82.34;101354.91;5065152;28;20041;-78
2022/06/27 04:34:13;;;;;;;12.60;8.35;;;;;;;16.89;82.25;101345.72;5056791;28;20176;-77
2022/06/27 04:36:45;;;;;;;14.18;8.98;;;;;;;16.97;81.86;101355.19;5059493;28;20044;-76
2022/06/27 04:39:17;;;;;;;11.23;8.15;;;;;;;17.04;81.51;101346.81;5073345;28;20050;-76
2022/06/27 04:41:50;;;;;;;11.68;8.40;;;;;;;17.10;81.31;101331.47;5064090;28;20041;-77
2022/06/27 04:44:19;;;;;;;11.25;8.30;;;;;;;17.10;81.42;101334.13;5067772;28;20468;-75
2022/06/27 04:46:49;;;;;;;11.80;8.68;;;;;;;17.14;81.37;101317.06;5068274;28;20129;-75
2022/06/27 04:49:36;;;;;;;12.13;8.82;;;;;;;17.21;81.24;101321.16;5072758;28;20114;-76
2022/06/27 04:52:09;;;;;;;12.63;8.88;;;;;;;17.23;81.15;101324.59;5071470;28;20786;-76
2022/06/27 04:54:37;;;;;;;16.25;9.35;;;;;;;17.28;81.24;101330.53;5083990;28;20045;-76
2022/06/27 04:57:06;;;;;;;18.98;9.18;;;;;;;17.35;81.12;101331.94;5070452;28;20045;-75
2022/06/27 04:59:35;;;;;;;14.77;9.48;;;;;;;17.41;81.06;101336.09;5071062;28;20064;-75
2022/06/27 05:02:14;;;;;;;19.67;9.32;;;;;;;17.44;80.77;101338.63;5078741;28;20115;-75
2022/06/27 05:04:41;;;;;;;8.68;6.07;;;;;;;17.46;80.59;101336.75;5070858;28;20033;-76
2022/06/27 05:07:08;;;;;;;7.63;5.47;;;;;;;17.66;80.09;101333.03;5090778;28;20462;-75
2022/06/27 05:09:35;;;;;;;9.77;8.70;;;;;;;17.86;79.52;101328.44;5074277;28;20041;-75
2022/06/27 05:12:04;;;;;;;10.75;8.25;;;;;;;17.88;78.82;101310.56;5090032;28;20532;-76
2022/06/27 05:14:31;;;;;;;12.68;9.30;;;;;;;17.87;78.65;101313.31;5071724;28;20124;-75
2022/06/27 05:17:01;;;;;;;19.20;7.82;;;;;;;17.83;79.03;101315.28;5069590;28;20041;-76
2022/06/27 05:19:31;;;;;;;15.63;8.80;;;;;;;17.80;78.59;101312.78;5071661;28;20060;-77
2022/06/27 05:21:59;;;;;;;14.20;9.15;;;;;;;17.73;78.88;101316.72;5067155;28;20519;-75
2022/06/27 05:24:29;;;;;;;21.15;10.20;;;;;;;17.70;79.13;101318.59;5090898;28;20044;-75
2022/06/27 05:26:57;;;;;;;15.88;9.18;;;;;;;17.68;79.33;101309.81;5073675;28;20080;-75
2022/06/27 05:29:24;;;;;;;11.98;8.38;;;;;;;17.67;79.37;101310.75;5091972;28;20037;-75
2022/06/27 05:31:51;;;;;;;13.20;7.93;;;;;;;17.70;79.37;101307.94;5062339;28;20040;-77
2022/06/27 05:34:28;;;;;;;12.05;7.85;;;;;;;17.77;79.19;101313.81;5068335;28;20049;-75
2022/06/27 05:36:55;;;;;;;12.73;8.18;;;;;;;17.84;78.79;101314.34;5071817;28;20048;-75
2022/06/27 05:39:23;;;;;;;15.73;8.93;;;;;;;17.85;78.60;101313.41;5065883;28;20060;-76
2022/06/27 05:41:50;;;;;;;13.88;8.15;;;;;;;17.86;78.23;101315.09;5083184;28;20102;-75
2022/06/27 05:44:21;;;;;;;12.68;8.68;;;;;;;17.80;78.25;101321.66;5066604;28;20159;-76
2022/06/27 05:46:49;;;;;;;15.10;9.18;;;;;;;17.80;78.18;101337.66;5086079;28;20098;-75
2022/06/27 05:49:26;;;;;;;13.85;9.45;;;;;;;17.80;78.36;101348.31;5080468;28;20045;-74
2022/06/27 05:51:57;;;;;;;15.02;9.38;;;;;;;17.86;78.24;101357.78;5074438;28;20033;-75
2022/06/27 05:54:26;;;;;;;15.63;8.95;;;;;;;17.96;78.27;101368.81;5062465;28;20037;-75
2022/06/27 05:56:54;;;;;;;13.27;8.68;;;;;;;18.07;77.83;101382.50;5064851;28;20115;-75
2022/06/27 05:59:33;;;;;;;16.05;8.90;;;;;;;18.20;77.24;101380.03;5066694;28;20071;-74
2022/06/27 06:02:03;;;;;;;11.32;8.60;;;;;;;18.29;77.43;101387.53;5044780;28;20042;-76
2022/06/27 06:04:36;;;;;;;15.70;9.38;;;;;;;18.42;77.42;101394.88;5036559;28;20516;-76
2022/06/27 06:07:05;;;;;;;16.58;9.30;;;;;;;18.54;77.20;101404.00;5056059;28;20059;-74
2022/06/27 06:09:33;;;;;;;18.00;8.52;;;;;;;18.63;76.48;101420.38;5034634;28;20165;-75
2022/06/27 06:12:01;;;;;;;16.58;9.73;;;;;;;18.67;75.98;101420.22;5052552;28;20047;-75
2022/06/27 06:14:33;;;;;;;11.65;8.73;;;;;;;18.66;76.21;101421.19;5052272;28;20045;-76
2022/06/27 06:17:00;;;;;;;22.58;10.07;;;;;;;18.66;76.02;101421.19;5046080;28;20034;-76
2022/06/27 06:19:28;;;;;;;16.20;10.20;;;;;;;18.66;76.17;101426.50;5052437;28;20048;-76
2022/06/27 06:21:55;;;;;;;13.52;8.82;;;;;;;18.63;76.14;101432.88;5048090;28;20563;-74
2022/06/27 06:24:24;;;;;;;14.80;9.45;;;;;;;18.61;76.43;101445.47;5055051;28;20100;-75
2022/06/27 06:27:05;;;;;;;13.13;8.57;;;;;;;18.55;76.81;101443.97;5069250;28;20061;-75
2022/06/27 06:29:32;;;;;;;17.60;8.90;;;;;;;18.51;76.47;101431.75;5052015;28;20041;-73
2022/06/27 06:32:02;;;;;;;15.65;8.55;;;;;;;18.41;76.29;101419.84;5056385;28;20112;-74
2022/06/27 06:34:34;;;;;;;45.03;11.50;;;;;;;18.34;76.81;101408.63;5053096;28;20044;-74
2022/06/27 06:37:02;;;;;;;15.68;9.73;;;;;;;18.30;76.89;101405.25;5037674;28;20564;-74
2022/06/27 06:39:29;;;;;;;16.83;9.90;;;;;;;18.29;77.04;101422.22;5049837;28;20045;-75
2022/06/27 06:41:59;;;;;;;15.13;9.75;;;;;;;18.28;77.48;101444.50;5054734;28;20060;-76
2022/06/27 06:44:31;;;;;;;25.27;10.65;;;;;;;18.23;77.77;101456.38;5055170;28;20500;-75
2022/06/27 06:47:26;;;;;;;17.02;9.50;;;;;;;18.23;77.85;101462.59;5071585;28;20041;-75
2022/06/27 06:50:00;;;;;;;16.85;10.50;;;;;;;18.19;77.95;101461.00;5053907;28;20052;-76
2022/06/27 06:52:30;;;;;;;12.93;9.63;;;;;;;18.20;78.20;101457.41;5060636;28;20047;-74
2022/06/27 06:54:57;;;;;;;18.33;10.32;;;;;;;18.22;78.20;101463.53;5051822;28;20502;-75
2022/06/27 06:57:24;;;;;;;13.60;10.57;;;;;;;18.20;78.27;101452.06;5070978;28;20041;-77
2022/06/27 06:59:51;;;;;;;16.35;10.80;;;;;;;18.22;78.21;101435.97;5074121;28;20056;-76
2022/06/27 07:02:18;;;;;;;19.73;10.65;;;;;;;18.25;78.09;101406.47;5069643;28;20037;-76
2022/06/27 07:04:47;;;;;;;12.35;10.00;;;;;;;18.30;77.70;101394.59;5055322;28;20045;-76
2022/06/27 07:07:17;;;;;;;12.85;9.80;;;;;;;18.37;77.51;101383.56;5072678;28;20120;-76
2022/06/27 07:09:44;;;;;;;12.48;9.60;;;;;;;18.42;76.83;101373.50;5067971;28;20040;-76
2022/06/27 07:12:19;;;;;;;11.23;9.07;;;;;;;18.42;76.55;101360.16;5060440;28;20056;-75
2022/06/27 07:14:47;;;;;;;14.77;9.68;;;;;;;18.44;76.32;101352.94;5072497;28;20837;-75
2022/06/27 07:17:14;;;;;;;11.23;9.00;;;;;;;18.43;76.38;101345.88;5072877;28;20072;-76
2022/06/27 07:19:43;;;;;;;12.25;8.35;;;;;;;18.42;76.65;101350.34;5072302;28;20043;-76
2022/06/27 07:22:10;;;;;;;14.50;9.63;;;;;;;18.43;76.48;101368.09;5069929;28;20436;-75
2022/06/27 07:24:37;;;;;;;14.77;9.00;;;;;;;18.46;76.60;101372.41;5061889;28;20065;-76
2022/06/27 07:27:05;;;;;;;12.93;8.68;;;;;;;18.55;75.74;101374.56;5053371;28;20072;-76
2022/06/27 07:29:32;;;;;;;11.13;8.80;;;;;;;18.59;75.32;101384.13;5066281;28;20128;-76
2022/06/27 07:31:59;;;;;;;16.02;9.77;;;;;;;18.61;76.01;101384.03;5072768;28;20051;-77
2022/06/27 07:34:27;;;;;;;17.27;9.40;;;;;;;18.69;75.78;101384.47;5072566;28;20158;-76
2022/06/27 07:36:56;;;;;;;14.38;9.10;;;;;;;18.82;75.37;101384.63;5073045;28;20041;-76
2022/06/27 07:39:23;;;;;;;18.27;9.85;;;;;;;18.91;75.53;101396.63;5068504;28;20092;-74
2022/06/27 07:41:51;;;;;;;18.13;9.50;;;;;;;19.07;74.90;101420.69;5073405;28;20068;-75
2022/06/27 07:44:19;;;;;;;13.35;9.85;;;;;;;19.22;74.71;101422.47;5055339;28;20051;-75
2022/06/27 07:46:46;;;;;;;18.60;9.27;;;;;;;19.39;74.01;101418.81;5072847;28;20068;-76
2022/06/27 07:49:13;;;;;;;12.60;9.63;;;;;;;19.54;73.93;101409.03;5071973;28;20048;-76
2022/06/27 07:51:41;;;;;;;16.15;10.43;;;;;;;19.63;73.86;101402.28;5072786;28;20040;-76
2022/06/27 07:54:10;;;;;;;13.52;9.00;;;;;;;19.74;73.74;101400.78;5072228;28;20048;-77
2022/06/27 07:56:38;;;;;;;13.55;8.68;;;;;;;19.78;72.44;101407.66;5073214;28;20075;-77
2022/06/27 07:59:32;;;;;;;10.85;8.30;;;;;;;19.86;72.41;101410.75;5072280;28;20048;-77
2022/06/27 08:02:00;;;;;;;12.35;7.93;;;;;;;20.04;71.44;101411.44;5071707;28;20045;-77
2022/06/27 08:04:27;;;;;;;9.68;7.40;;;;;;;20.10;69.79;101420.91;5069700;28;20068;-78
2022/06/27 08:06:55;;;;;;;9.65;7.88;;;;;;;20.07;69.52;101434.47;5071395;28;20095;-77
2022/06/27 08:09:23;;;;;;;10.55;7.35;;;;;;;20.08;70.19;101453.13;5067185;28;20575;-77
2022/06/27 08:11:50;;;;;;;14.75;8.02;;;;;;;20.10;70.38;101480.66;5071712;28;20120;-77
2022/06/27 08:14:18;;;;;;;14.60;9.27;;;;;;;20.11;70.93;101493.06;5058613;28;20084;-77
2022/06/27 08:16:49;;;;;;;10.70;8.73;;;;;;;20.05;71.01;101501.47;5052342;28;20045;-76
2022/06/27 08:19:19;;;;;;;14.57;9.10;;;;;;;19.95;71.37;101500.31;5051793;28;20045;-78
2022/06/27 08:21:47;;;;;;;16.15;9.05;;;;;;;19.94;71.55;101498.59;5033044;28;20045;-77
2022/06/27 08:24:18;;;;;;;11.35;8.40;;;;;;;19.98;71.26;101497.47;5066492;28;20504;-78
2022/06/27 08:27:12;;;;;;;11.85;8.35;;;;;;;20.07;70.70;101515.63;5071064;28;20505;-78
2022/06/27 08:29:41;;;;;;;14.93;8.32;;;;;;;20.21;70.76;101511.25;5072733;28;20045;-76
2022/06/27 08:32:08;;;;;;;23.17;9.35;;;;;;;20.38;70.81;101500.41;5071049;28;20945;-78
2022/06/27 08:34:36;;;;;;;16.70;9.40;;;;;;;20.60;70.44;101481.16;5072090;28;20560;-77
2022/06/27 08:37:04;;;;;;;23.40;9.40;;;;;;;20.76;69.59;101472.19;5053276;28;20072;-75
2022/06/27 08:39:32;;;;;;;15.00;9.30;;;;;;;20.95;68.86;101474.56;5059812;28;20064;-75
2022/06/27 08:42:00;;;;;;;10.73;7.75;;;;;;;21.15;69.06;101489.38;5052341;28;20532;-75
2022/06/27 08:44:30;;;;;;;15.32;9.32;;;;;;;21.37;67.70;101498.66;5052079;28;20042;-75
2022/06/27 08:46:58;;;;;;;15.55;7.70;;;;;;;21.53;67.63;101498.50;5052064;28;20133;-75
2022/06/27 08:49:26;;;;;;;12.27;8.98;;;;;;;21.67;66.53;101495.81;5053375;28;20099;-76
2022/06/27 08:51:54;;;;;;;10.98;7.95;;;;;;;21.72;66.47;101512.44;5072249;28;20503;-77
2022/06/27 08:54:21;;;;;;;11.25;8.30;;;;;;;21.72;66.31;101519.66;5071562;28;21262;-75
2022/06/27 08:56:48;;;;;;;13.27;7.40;;;;;;;21.72;65.20;101512.44;5069584;28;20037;-76
2022/06/27 08:59:16;;;;;;;14.57;9.10;;;;;;;21.72;65.12;101500.88;5070319;28;20037;-75
2022/06/27 09:01:47;;;;;;;14.70;8.80;;;;;;;21.67;65.13;101495.81;5071466;28;20045;-77
2022/06/27 09:04:14;;;;;;;14.48;7.57;;;;;;;21.58;64.88;101485.66;5071046;28;20049;-76
2022/06/27 09:06:44;;;;;;;10.50;7.50;;;;;;;21.51;65.17;101498.63;5069813;28;20053;-75
2022/06/27 09:09:14;;;;;;;9.65;7.00;;;;;;;21.53;65.22;101499.38;5071186;28;20049;-75
2022/06/27 09:11:46;;;;;;;11.90;7.63;;;;;;;21.58;65.29;101488.34;5071567;28;20041;-75
2022/06/27 09:14:43;;;;;;;11.23;8.13;;;;;;;21.59;65.09;101495.47;5063056;28;20480;-75
2022/06/27 09:17:15;;;;;;;14.85;7.70;;;;;;;21.63;65.13;101514.91;5062491;28;20088;-74
2022/06/27 09:19:55;;;;;;;22.80;9.07;;;;;;;21.76;63.87;101522.97;5071554;28;20125;-75
2022/06/27 09:22:28;;;;;;;15.18;8.77;;;;;;;21.82;63.42;101527.94;5071519;28;20049;-75
2022/06/27 09:25:09;;;;;;;12.38;8.40;;;;;;;21.79;62.54;101520.94;5059393;28;20041;-74
2022/06/27 09:27:50;;;;;;;11.95;7.75;;;;;;;21.81;62.64;101523.53;5071719;28;20041;-75
2022/06/27 09:30:21;;;;;;;11.43;7.35;;;;;;;21.76;62.79;101507.75;5071762;28;20049;-74
2022/06/27 09:33:09;;;;;;;10.25;7.82;;;;;;;21.74;62.89;101506.13;5071467;28;20647;-74
2022/06/27 09:35:39;;;;;;;11.80;7.90;;;;;;;21.73;62.56;101513.31;5068556;28;20041;-76
2022/06/27 09:38:08;;;;;;;10.40;7.45;;;;;;;21.76;63.28;101507.75;5052337;28;20105;-74
2022/06/27 09:40:39;;;;;;;12.85;7.03;;;;;;;21.85;61.77;101517.00;5060871;28;20578;-74
2022/06/27 09:43:09;;;;;;;11.43;7.15;;;;;;;22.03;61.36;101528.31;5067758;28;20041;-75
2022/06/27 09:45:37;;;;;;;25.52;6.65;;;;;;;22.24;59.63;101519.75;5069880;28;20136;-74
2022/06/27 09:48:16;;;;;;;8.07;4.63;;;;;;;22.39;58.27;101517.81;5067429;28;20045;-74
2022/06/27 09:50:44;;;;;;;15.05;5.13;;;;;;;22.42;57.91;101523.88;5060194;28;20041;-75
2022/06/27 09:53:13;;;;;;;7.10;5.45;;;;;;;22.44;56.81;101526.44;5070322;28;20103;-75
2022/06/27 09:55:44;;;;;;;10.40;5.47;;;;;;;22.41;56.85;101529.34;5061456;28;21014;-75
2022/06/27 09:58:11;;;;;;;10.55;5.47;;;;;;;22.37;57.27;101535.88;5051139;28;20046;-75
2022/06/27 10:00:41;;;;;;;11.57;5.93;;;;;;;22.43;58.41;101528.28;5051312;28;20042;-76
2022/06/27 10:03:08;;;;;;;9.48;6.05;;;;;;;22.55;58.80;101521.16;5064831;28;20583;-76
2022/06/27 10:05:43;;;;;;;12.50;6.82;;;;;;;22.61;57.96;101514.50;5070883;28;20049;-76
2022/06/27 10:08:12;;;;;;;9.55;4.57;;;;;;;22.59;57.18;101503.88;5070605;28;20072;-77
2022/06/27 10:11:01;;;;;;;9.07;4.70;;;;;;;22.54;56.06;101505.16;5069267;28;20094;-76
2022/06/27 10:13:29;;;;;;;5.75;5.03;;;;;;;22.43;56.09;101505.94;5061685;28;20045;-76
2022/06/27 10:16:10;;;;;;;11.73;5.38;;;;;;;22.53;56.88;101514.19;5072236;28;20047;-75
2022/06/27 10:19:03;;;;;;;9.52;5.53;;;;;;;22.73;55.35;101499.34;5074687;28;20048;-76
2022/06/27 10:21:40;;;;;;;8.85;4.85;;;;;;;22.88;55.05;101500.09;5053775;28;20572;-76
2022/06/27 10:24:19;;;;;;;18.60;5.53;;;;;;;23.03;54.05;101492.72;5066495;28;20099;-75
2022/06/27 10:26:52;;;;;;;15.75;5.60;;;;;;;23.20;55.45;101487.00;5074308;28;20053;-75
2022/06/27 10:29:42;;;;;;;;;;;;;;;23.40;54.60;101490.88;5067835;28;20562;-74
2022/06/27 10:32:44;;;;;;;7.65;5.50;;;;;;;23.65;53.07;101489.03;5074180;28;19924;-74
2022/06/27 10:35:16;;;;;;;10.68;4.53;;;;;;;23.74;51.72;101492.88;5073037;28;20041;-77
2022/06/27 10:37:45;;;;;;;8.13;5.00;;;;;;;23.78;50.99;101488.97;5074597;28;20727;-76
2022/06/27 10:40:19;;;;;;;6.53;4.43;;;;;;;23.70;51.68;101488.69;5055710;28;20033;-75
2022/06/27 10:42:54;;;;;;;;;;;;;;;23.58;52.50;101472.50;5035612;28;20551;-76
2022/06/27 10:45:43;;;;;;;9.50;4.90;;;;;;;23.59;52.19;101462.59;5058700;28;19932;-76
2022/06/27 10:48:38;;;;;;;6.78;4.13;;;;;;;23.47;51.49;101461.69;5072474;28;20129;-75
2022/06/27 10:51:18;;;;;;;5.63;3.72;;;;;;;23.30;51.71;101468.31;5036229;28;20091;-76
2022/06/27 10:53:48;;;;;;;12.50;4.53;;;;;;;23.17;51.57;101465.66;5060275;28;20044;-77
2022/06/27 10:59:48;;;;;;;6.05;4.47;;;;;;;23.58;52.94;101472.50;5066698;28;20116;-76
2022/06/27 11:02:18;;;;;;;9.95;4.30;;;;;;;23.90;51.95;101484.50;5073669;28;20103;-77
2022/06/27 11:04:45;;;;;;;15.02;5.00;;;;;;;24.10;52.01;101476.72;5073838;28;20124;-76
2022/06/27 11:07:14;;;;;;;9.65;5.38;;;;;;;24.35;49.84;101481.06;5073041;28;20056;-76
2022/06/27 11:09:48;;;;;;;9.20;5.22;;;;;;;24.39;49.74;101479.81;5051713;28;20494;-76
2022/06/27 11:12:20;;;;;;;10.52;4.45;;;;;;;24.42;51.05;101484.13;5067068;28;20508;-77
2022/06/27 11:14:53;;;;;;;8.18;5.18;;;;;;;24.58;48.71;101489.13;5069315;28;20037;-76
2022/06/27 11:17:33;;;;;;;9.70;5.32;;;;;;;24.73;49.12;101479.84;5072964;28;20405;-78
2022/06/27 11:20:23;;;;;;;8.75;5.57;;;;;;;24.73;48.51;101473.59;5073085;28;20048;-78
2022/06/27 11:23:05;;;;;;;9.38;5.30;;;;;;;24.60;48.84;101490.72;5072621;28;20116;-77
2022/06/27 11:25:33;;;;;;;9.52;5.20;;;;;;;24.48;49.17;101497.94;5069109;28;20037;-77
2022/06/27 11:33:40;;;;;;;9.18;4.97;;;;;;;24.55;49.71;101492.09;5073466;28;20045;-77
2022/06/27 11:36:13;;;;;;;8.98;4.63;;;;;;;24.49;49.38;101499.66;5073199;28;20152;-77
2022/06/27 11:38:43;;;;;;;7.50;3.90;;;;;;;24.38;49.19;101498.81;5067808;28;20037;-77
2022/06/27 11:41:14;;;;;;;6.68;3.28;;;;;;;24.29;49.38;101494.97;5068346;28;20044;-78
2022/06/27 11:44:10;;;;;;;6.63;3.70;;;;;;;24.28;49.07;101493.25;5072808;28;20037;-77
2022/06/27 11:46:49;;;;;;;10.98;4.38;;;;;;;24.24;48.37;101484.56;5071622;28;20052;-76
2022/06/27 11:49:30;;;;;;;7.90;5.05;;;;;;;24.25;48.48;101485.44;5072735;28;20120;-75